createdAt,value
2022-07-25T00:01:39.148Z,84.20
2022-07-25T00:04:09.922Z,85.40
2022-07-25T00:06:40.611Z,85.90
2022-07-25T00:09:09.005Z,85.80
2022-07-25T00:11:37.096Z,85.10
2022-07-25T00:14:06.057Z,83.80
2022-07-25T00:16:34.752Z,83.40
2022-07-25T00:19:03.300Z,83.90
2022-07-25T00:21:32.787Z,83.40
2022-07-25T00:24:00.887Z,83.80
2022-07-25T00:26:29.112Z,84.10
2022-07-25T00:28:57.220Z,85.60
2022-07-25T00:31:27.869Z,86.00
2022-07-25T00:33:56.202Z,86.00
2022-07-25T00:36:24.395Z,85.80
2022-07-25T00:38:53.829Z,85.40
2022-07-25T00:41:22.021Z,85.90
2022-07-25T00:43:50.178Z,85.70
2022-07-25T00:46:19.284Z,86.70
2022-07-25T00:48:50.941Z,87.70
2022-07-25T00:51:19.416Z,87.80
2022-07-25T00:53:47.923Z,87.30
2022-07-25T00:56:18.106Z,87.00
2022-07-25T00:58:46.811Z,86.10
2022-07-25T01:01:15.004Z,86.50
2022-07-25T01:03:43.175Z,86.50
2022-07-25T01:06:11.276Z,86.50
2022-07-25T01:08:40.039Z,86.10
2022-07-25T01:11:08.257Z,85.90
2022-07-25T01:13:37.784Z,86.10
2022-07-25T01:16:06.860Z,85.80
2022-07-25T01:18:35.514Z,85.20
2022-07-25T01:21:05.227Z,84.90
2022-07-25T01:23:33.533Z,84.90
2022-07-25T01:26:01.751Z,84.40
2022-07-25T01:28:29.845Z,83.90
2022-07-25T01:30:58.009Z,83.50
2022-07-25T01:33:26.463Z,83.50
2022-07-25T01:35:54.582Z,84.20
2022-07-25T01:38:24.084Z,84.40
2022-07-25T01:40:52.321Z,84.40
2022-07-25T01:43:20.422Z,85.00
2022-07-25T01:45:48.567Z,85.80
2022-07-25T01:48:16.949Z,86.90
2022-07-25T01:50:48.547Z,86.90
2022-07-25T01:53:17.196Z,86.80
2022-07-25T01:55:47.586Z,86.20
2022-07-25T01:58:17.870Z,85.80
2022-07-25T02:00:46.829Z,85.50
2022-07-25T02:03:33.305Z,85.00
2022-07-25T02:06:03.175Z,85.10
2022-07-25T02:08:32.176Z,85.10
2022-07-25T02:11:02.692Z,86.00
2022-07-25T02:13:30.875Z,86.20
2022-07-25T02:15:59.080Z,86.10
2022-07-25T02:18:27.237Z,86.50
2022-07-25T02:20:55.392Z,86.50
2022-07-25T02:23:23.583Z,86.80
2022-07-25T02:25:51.817Z,86.80
2022-07-25T02:28:21.324Z,86.70
2022-07-25T02:30:49.461Z,86.60
2022-07-25T02:33:17.719Z,86.80
2022-07-25T02:35:45.958Z,86.70
2022-07-25T02:38:19.587Z,87.30
2022-07-25T02:40:48.042Z,86.10
2022-07-25T02:43:16.699Z,86.50
2022-07-25T02:45:46.866Z,86.30
2022-07-25T02:48:15.093Z,86.20
2022-07-25T02:50:43.122Z,86.40
2022-07-25T02:53:11.374Z,87.20
2022-07-25T02:55:39.586Z,87.60
2022-07-25T02:58:07.906Z,87.50
2022-07-25T03:00:36.233Z,87.20
2022-07-25T03:03:05.772Z,87.50
2022-07-25T03:05:33.997Z,87.50
2022-07-25T03:08:02.117Z,87.20
2022-07-25T03:10:30.219Z,86.90
2022-07-25T03:12:58.371Z,87.50
2022-07-25T03:15:26.636Z,87.00
2022-07-25T03:17:56.722Z,86.80
2022-07-25T03:20:26.366Z,86.80
2022-07-25T03:22:54.535Z,86.60
2022-07-25T03:25:22.712Z,86.70
2022-07-25T03:27:51.272Z,86.80
2022-07-25T03:30:19.518Z,87.30
2022-07-25T03:32:47.881Z,87.80
2022-07-25T03:35:16.614Z,88.10
2022-07-25T03:37:46.084Z,88.30
2022-07-25T03:40:15.906Z,88.60
2022-07-25T03:42:44.444Z,89.60
2022-07-25T03:45:12.801Z,90.00
2022-07-25T03:47:40.972Z,90.50
2022-07-25T03:50:09.822Z,90.60
2022-07-25T03:52:38.463Z,90.60
2022-07-25T03:55:10.558Z,90.50
2022-07-25T03:57:39.028Z,90.30
2022-07-25T04:00:09.839Z,90.00
2022-07-25T04:02:38.615Z,90.00
2022-07-25T04:05:07.587Z,90.20
2022-07-25T04:07:36.346Z,89.50
2022-07-25T04:10:04.987Z,89.00
2022-07-25T04:12:34.705Z,90.00
2022-07-25T04:15:03.095Z,90.20
2022-07-25T04:17:31.233Z,90.00
2022-07-25T04:19:59.912Z,90.00
2022-07-25T04:22:28.014Z,89.70
2022-07-25T04:24:56.178Z,89.50
2022-07-25T04:27:24.380Z,89.80
2022-07-25T04:29:53.819Z,89.50
2022-07-25T04:32:23.663Z,89.50
2022-07-25T04:34:52.583Z,88.50
2022-07-25T04:37:20.732Z,88.70
2022-07-25T04:39:50.874Z,88.50
2022-07-25T04:42:18.931Z,88.50
2022-07-25T04:44:47.003Z,88.00
2022-07-25T04:47:16.531Z,88.50
2022-07-25T04:49:44.567Z,88.30
2022-07-25T04:52:12.721Z,88.10
2022-07-25T04:54:40.898Z,88.40
2022-07-25T04:57:09.044Z,88.60
2022-07-25T04:59:37.097Z,88.30
2022-07-25T05:02:05.350Z,89.10
2022-07-25T05:04:34.936Z,89.60
2022-07-25T05:07:03.188Z,89.40
2022-07-25T05:09:31.287Z,89.50
2022-07-25T05:11:59.410Z,89.50
2022-07-25T05:14:27.781Z,89.30
2022-07-25T05:16:56.169Z,89.20
2022-07-25T05:19:24.531Z,89.80
2022-07-25T05:21:54.370Z,90.20
2022-07-25T05:24:23.038Z,90.00
2022-07-25T05:26:51.601Z,89.90
2022-07-25T05:29:19.689Z,90.10
2022-07-25T05:31:47.923Z,89.80
2022-07-25T05:34:16.035Z,89.50
2022-07-25T05:36:47.205Z,88.60
2022-07-25T05:39:17.026Z,88.30
2022-07-25T05:41:45.142Z,89.80
2022-07-25T05:44:13.379Z,90.50
2022-07-25T05:46:41.842Z,90.50
2022-07-25T05:49:10.098Z,90.60
2022-07-25T05:51:38.308Z,90.60
2022-07-25T05:54:06.808Z,90.60
2022-07-25T05:56:36.764Z,90.60
2022-07-25T05:59:04.965Z,90.60
2022-07-25T06:01:33.107Z,90.50
2022-07-25T06:04:01.381Z,90.40
2022-07-25T06:06:32.707Z,90.40
2022-07-25T06:09:03.077Z,90.20
2022-07-25T06:11:48.674Z,90.30
2022-07-25T06:14:22.938Z,90.00
2022-07-25T06:16:51.234Z,90.30
2022-07-25T06:19:19.601Z,90.00
2022-07-25T06:21:47.679Z,89.50
2022-07-25T06:24:15.806Z,88.90
2022-07-25T06:26:45.470Z,88.50
2022-07-25T06:29:13.560Z,87.50
2022-07-25T06:31:41.723Z,86.80
2022-07-25T06:34:14.392Z,86.50
2022-07-25T06:36:42.638Z,86.10
2022-07-25T06:39:10.932Z,85.70
2022-07-25T06:41:39.098Z,84.80
2022-07-25T06:44:09.130Z,84.30
2022-07-25T06:46:37.589Z,83.60
2022-07-25T06:49:05.908Z,83.30
2022-07-25T06:51:34.481Z,83.50
2022-07-25T06:54:03.293Z,82.90
2022-07-25T06:56:33.205Z,83.80
2022-07-25T06:59:01.665Z,83.80
2022-07-25T07:01:31.219Z,83.70
2022-07-25T07:03:59.367Z,83.40
2022-07-25T07:06:27.502Z,83.20
2022-07-25T07:08:56.164Z,82.90
2022-07-25T07:11:24.399Z,82.80
2022-07-25T07:13:52.509Z,82.40
2022-07-25T07:16:20.738Z,81.90
2022-07-25T07:18:50.262Z,81.70
2022-07-25T07:21:21.407Z,81.50
2022-07-25T07:23:49.812Z,80.70
2022-07-25T07:26:22.075Z,80.70
2022-07-25T07:28:54.512Z,80.50
2022-07-25T07:31:22.739Z,79.60
2022-07-25T07:33:52.533Z,79.10
2022-07-25T07:36:20.646Z,79.30
2022-07-25T07:38:49.321Z,79.40
2022-07-25T07:41:17.445Z,78.30
2022-07-25T07:43:45.519Z,78.10
2022-07-25T07:46:14.012Z,77.70
2022-07-25T07:48:42.681Z,77.80
2022-07-25T07:51:12.212Z,77.70
2022-07-25T07:53:58.077Z,76.30
2022-07-25T07:56:26.223Z,75.50
2022-07-25T07:58:54.376Z,76.10
2022-07-25T08:01:22.498Z,76.00
2022-07-25T08:03:50.669Z,75.20
2022-07-25T08:06:20.149Z,74.20
2022-07-25T08:08:48.532Z,74.10
2022-07-25T08:11:16.662Z,74.10
2022-07-25T08:13:44.717Z,73.70
2022-07-25T08:16:14.106Z,74.30
2022-07-25T08:18:42.214Z,73.60
2022-07-25T08:21:10.928Z,72.90
2022-07-25T08:23:40.366Z,72.90
2022-07-25T08:26:08.923Z,72.20
2022-07-25T08:28:39.292Z,72.00
2022-07-25T08:31:08.612Z,71.70
2022-07-25T08:33:36.752Z,71.60
2022-07-25T08:36:05.086Z,71.40
2022-07-25T08:38:35.340Z,71.40
2022-07-25T08:41:05.258Z,71.70
2022-07-25T08:43:35.040Z,70.50
2022-07-25T08:46:04.074Z,69.50
2022-07-25T08:48:32.709Z,68.50
2022-07-25T08:51:01.253Z,68.20
2022-07-25T08:53:33.063Z,68.40
2022-07-25T08:56:05.506Z,69.00
2022-07-25T08:58:41.478Z,68.20
2022-07-25T09:01:10.131Z,67.90
2022-07-25T09:03:38.551Z,66.90
2022-07-25T09:06:16.418Z,66.40
2022-07-25T09:08:52.923Z,66.90
2022-07-25T09:11:31.879Z,67.40
2022-07-25T09:14:05.240Z,66.50
2022-07-25T09:16:35.842Z,65.90
2022-07-25T09:19:12.706Z,65.30
2022-07-25T09:21:42.893Z,65.70
2022-07-25T09:24:16.037Z,66.50
2022-07-25T09:26:46.902Z,66.30
2022-07-25T09:29:24.754Z,66.10
2022-07-25T09:31:55.639Z,65.30
2022-07-25T09:34:34.806Z,64.70
2022-07-25T09:37:03.580Z,64.50
2022-07-25T09:39:35.998Z,65.20
2022-07-25T09:42:04.519Z,64.90
2022-07-25T09:44:36.611Z,64.60
2022-07-25T09:47:12.574Z,64.70
2022-07-25T09:49:45.248Z,63.80
2022-07-25T09:52:14.018Z,63.00
2022-07-25T09:54:42.422Z,63.10
2022-07-25T09:57:10.898Z,62.50
2022-07-25T09:59:40.548Z,62.80
2022-07-25T10:02:13.075Z,62.60
2022-07-25T10:04:48.246Z,62.50
2022-07-25T10:07:20.586Z,61.50
2022-07-25T10:09:50.780Z,61.10
2022-07-25T10:12:22.095Z,60.50
2022-07-25T10:15:12.299Z,60.10
2022-07-25T10:17:42.488Z,59.90
2022-07-25T10:20:11.771Z,59.40
2022-07-25T10:22:56.181Z,59.20
2022-07-25T10:25:25.098Z,59.30
2022-07-25T10:28:01.105Z,58.80
2022-07-25T10:30:36.074Z,58.90
2022-07-25T10:33:06.612Z,59.20
2022-07-25T10:35:34.968Z,58.80
2022-07-25T10:38:07.782Z,58.20
2022-07-25T10:40:39.194Z,57.60
2022-07-25T10:43:12.955Z,57.40
2022-07-25T10:45:50.245Z,57.00
2022-07-25T10:48:24.003Z,57.30
2022-07-25T10:50:55.921Z,57.20
2022-07-25T10:53:39.486Z,56.30
2022-07-25T10:56:09.930Z,56.60
2022-07-25T10:58:49.772Z,55.80
2022-07-25T11:01:24.050Z,55.50
2022-07-25T11:03:53.479Z,55.10
2022-07-25T11:06:32.811Z,54.30
2022-07-25T11:09:01.516Z,54.30
2022-07-25T11:11:37.326Z,53.40
2022-07-25T11:14:06.736Z,53.00
2022-07-25T11:16:36.386Z,53.40
2022-07-25T11:19:04.911Z,53.40
2022-07-25T11:21:33.161Z,53.30
2022-07-25T11:24:01.417Z,52.50
2022-07-25T11:26:29.584Z,52.00
2022-07-25T11:28:57.654Z,52.70
2022-07-25T11:31:26.183Z,52.80
2022-07-25T11:33:55.914Z,52.60
2022-07-25T11:36:24.181Z,52.00
2022-07-25T11:38:52.473Z,51.60
2022-07-25T11:41:30.654Z,51.10
2022-07-25T11:43:58.848Z,50.90
2022-07-25T11:46:27.654Z,50.90
2022-07-25T11:49:05.905Z,51.40
2022-07-25T11:51:38.822Z,50.80
2022-07-25T11:54:13.348Z,50.00
2022-07-25T11:56:43.910Z,49.80
2022-07-25T11:59:12.667Z,49.60
2022-07-25T12:01:42.676Z,49.60
2022-07-25T12:04:15.321Z,48.50
2022-07-25T12:06:43.713Z,48.70
2022-07-25T12:09:18.276Z,49.10
2022-07-25T12:11:48.981Z,48.40
2022-07-25T12:14:17.546Z,48.60
2022-07-25T12:16:45.777Z,47.80
2022-07-25T12:19:22.911Z,47.70
2022-07-25T12:21:51.000Z,47.90
2022-07-25T12:24:19.101Z,47.90
2022-07-25T12:26:47.493Z,48.00
2022-07-25T12:29:15.564Z,46.60
2022-07-25T12:31:43.775Z,44.40
2022-07-25T12:34:11.845Z,44.70
2022-07-25T12:36:45.014Z,46.30
2022-07-25T12:39:13.243Z,46.60
2022-07-25T12:41:42.851Z,47.50
2022-07-25T12:44:11.320Z,45.90
2022-07-25T12:46:47.156Z,47.00
2022-07-25T12:49:17.275Z,46.70
2022-07-25T12:51:46.907Z,47.20
2022-07-25T12:54:21.674Z,46.60
2022-07-25T12:56:50.844Z,46.70
2022-07-25T12:59:19.069Z,45.60
2022-07-25T13:01:47.254Z,45.20
2022-07-25T13:04:15.462Z,44.70
2022-07-25T13:06:43.817Z,44.70
2022-07-25T13:09:13.318Z,44.30
2022-07-25T13:11:42.433Z,44.70
2022-07-25T13:14:10.555Z,44.40
2022-07-25T13:16:39.025Z,43.60
2022-07-25T13:19:07.963Z,44.20
2022-07-25T13:21:37.810Z,43.90
2022-07-25T13:24:07.151Z,44.30
2022-07-25T13:26:37.773Z,44.50
2022-07-25T13:29:08.654Z,44.40
2022-07-25T13:31:38.490Z,43.90
2022-07-25T13:34:06.719Z,44.40
2022-07-25T13:36:34.949Z,45.40
2022-07-25T13:39:03.464Z,44.80
2022-07-25T13:41:31.712Z,43.70
2022-07-25T13:44:01.548Z,44.20
2022-07-25T13:46:29.683Z,43.40
2022-07-25T13:48:57.788Z,43.50
2022-07-25T13:51:25.962Z,42.70
2022-07-25T13:53:54.175Z,41.80
2022-07-25T13:56:22.361Z,41.20
2022-07-25T13:58:50.394Z,40.80
2022-07-25T14:01:19.949Z,39.50
2022-07-25T14:03:48.545Z,39.20
2022-07-25T14:06:16.713Z,39.50
2022-07-25T14:08:44.881Z,40.00
2022-07-25T14:11:12.975Z,40.00
2022-07-25T14:13:41.165Z,39.30
2022-07-25T14:16:09.615Z,39.60
2022-07-25T14:18:39.174Z,39.10
2022-07-25T14:21:07.401Z,39.00
2022-07-25T14:23:35.633Z,38.20
2022-07-25T14:26:03.872Z,36.90
2022-07-25T14:28:32.020Z,37.70
2022-07-25T14:31:00.211Z,37.30
2022-07-25T14:33:28.426Z,36.60
2022-07-25T14:35:57.967Z,34.90
2022-07-25T14:38:26.158Z,34.70
2022-07-25T14:40:54.198Z,33.50
2022-07-25T14:43:22.362Z,31.80
2022-07-25T14:45:50.417Z,30.30
2022-07-25T14:48:18.542Z,30.00
2022-07-25T14:50:46.669Z,29.60
2022-07-25T14:53:16.309Z,29.40
2022-07-25T14:55:44.433Z,28.20
2022-07-25T14:58:13.531Z,27.70
2022-07-25T15:00:43.543Z,27.40
2022-07-25T15:03:11.714Z,27.70
2022-07-25T15:05:39.853Z,28.10
2022-07-25T15:08:08.453Z,28.60
2022-07-25T15:10:37.880Z,28.60
2022-07-25T15:13:30.872Z,29.20
2022-07-25T15:15:54.412Z,30.60
2022-07-25T15:18:22.984Z,32.00
2022-07-25T15:20:52.017Z,33.70
2022-07-25T15:23:21.053Z,35.40
2022-07-25T15:26:06.036Z,35.20
2022-07-25T15:28:35.294Z,36.50
2022-07-25T15:31:03.661Z,36.60
2022-07-25T15:33:32.428Z,36.80
2022-07-25T15:36:01.017Z,38.70
2022-07-25T15:38:30.779Z,39.40
2022-07-25T15:41:00.386Z,39.20
2022-07-25T15:43:28.822Z,38.20
2022-07-25T15:45:56.871Z,37.90
2022-07-25T15:48:27.589Z,38.00
2022-07-25T15:50:58.844Z,38.80
2022-07-25T15:53:26.924Z,39.10
2022-07-25T15:55:55.226Z,39.20
2022-07-25T15:58:24.767Z,39.70
2022-07-25T16:00:52.952Z,39.60
2022-07-25T16:03:21.581Z,40.20
2022-07-25T16:05:49.807Z,39.90
2022-07-25T16:08:18.483Z,39.90
2022-07-25T16:10:46.583Z,39.10
2022-07-25T16:13:14.689Z,39.30
2022-07-25T16:15:44.376Z,38.70
2022-07-25T16:18:12.506Z,38.60
2022-07-25T16:20:40.600Z,38.70
2022-07-25T16:23:08.946Z,38.90
2022-07-25T16:25:37.122Z,40.10
2022-07-25T16:28:07.377Z,39.90
2022-07-25T16:30:35.875Z,40.00
2022-07-25T16:33:05.760Z,40.20
2022-07-25T16:35:33.875Z,40.40
2022-07-25T16:38:02.123Z,40.20
2022-07-25T16:40:31.006Z,41.10
2022-07-25T16:42:59.830Z,41.20
2022-07-25T16:45:28.949Z,41.20
2022-07-25T16:47:57.420Z,41.10
2022-07-25T16:50:26.897Z,41.50
2022-07-25T16:52:55.120Z,42.30
2022-07-25T16:55:23.467Z,42.60
2022-07-25T16:57:51.646Z,42.60
2022-07-25T17:00:20.868Z,43.60
2022-07-25T17:02:49.782Z,42.70
2022-07-25T17:05:18.463Z,43.40
2022-07-25T17:07:57.093Z,43.60
2022-07-25T17:10:26.980Z,43.80
2022-07-25T17:12:55.325Z,44.30
2022-07-25T17:15:24.118Z,43.60
2022-07-25T17:17:52.351Z,44.20
2022-07-25T17:20:20.558Z,44.30
2022-07-25T17:22:50.141Z,44.30
2022-07-25T17:25:18.262Z,44.70
2022-07-25T17:27:46.538Z,45.20
2022-07-25T17:30:14.733Z,45.10
2022-07-25T17:32:42.964Z,45.20
2022-07-25T17:35:11.459Z,46.50
2022-07-25T17:37:39.492Z,45.50
2022-07-25T17:40:10.703Z,46.20
2022-07-25T17:42:44.868Z,46.80
2022-07-25T17:45:14.022Z,46.60
2022-07-25T17:47:42.996Z,46.50
2022-07-25T17:50:12.361Z,46.80
2022-07-25T17:52:40.811Z,47.40
2022-07-25T17:55:12.054Z,47.20
2022-07-25T17:57:42.929Z,47.10
2022-07-25T18:00:12.559Z,47.50
2022-07-25T18:02:41.002Z,47.50
2022-07-25T18:05:09.867Z,47.90
2022-07-25T18:07:40.779Z,46.70
2022-07-25T18:10:10.617Z,46.70
2022-07-25T18:12:38.752Z,46.50
2022-07-25T18:15:08.151Z,46.70
2022-07-25T18:17:36.337Z,46.80
2022-07-25T18:20:05.122Z,46.80
2022-07-25T18:22:33.224Z,46.90
2022-07-25T18:25:01.303Z,47.20
2022-07-25T18:27:30.775Z,47.10
2022-07-25T18:29:58.953Z,47.30
2022-07-25T18:32:27.206Z,47.70
2022-07-25T18:34:55.295Z,47.80
2022-07-25T18:37:23.400Z,48.60
2022-07-25T18:39:51.452Z,48.40
2022-07-25T18:42:19.681Z,48.40
2022-07-25T18:44:49.120Z,48.60
2022-07-25T18:47:17.427Z,48.90
2022-07-25T18:49:45.954Z,49.30
2022-07-25T18:52:14.043Z,49.50
2022-07-25T18:54:42.250Z,48.90
2022-07-25T18:57:10.443Z,49.40
2022-07-25T18:59:38.776Z,51.10
2022-07-25T19:02:08.278Z,51.60
2022-07-25T19:04:36.537Z,52.00
2022-07-25T19:07:04.609Z,54.00
2022-07-25T19:09:32.771Z,55.50
2022-07-25T19:12:01.267Z,58.30
2022-07-25T19:14:30.775Z,61.30
2022-07-25T19:16:59.158Z,63.60
2022-07-25T19:19:28.598Z,70.10
2022-07-25T19:21:56.690Z,73.40
2022-07-25T19:24:26.890Z,78.60
2022-07-25T19:26:56.180Z,80.30
2022-07-25T19:29:26.614Z,79.40
2022-07-25T19:31:54.839Z,80.40
2022-07-25T19:34:22.884Z,81.20
2022-07-25T19:36:52.447Z,81.70
2022-07-25T19:39:20.581Z,83.70
2022-07-25T19:41:49.723Z,84.20
2022-07-25T19:44:17.855Z,84.20
2022-07-25T19:46:46.439Z,84.50
2022-07-25T19:49:14.753Z,85.20
2022-07-25T19:51:43.059Z,82.90
2022-07-25T19:54:12.476Z,84.10
2022-07-25T19:56:40.550Z,86.10
2022-07-25T19:59:08.603Z,86.00
2022-07-25T20:01:36.885Z,86.30
2022-07-25T20:04:09.062Z,86.40
2022-07-25T20:06:37.574Z,86.50
2022-07-25T20:09:06.970Z,88.10
2022-07-25T20:11:37.233Z,90.10
2022-07-25T20:14:05.900Z,90.00
2022-07-25T20:16:34.398Z,90.10
2022-07-25T20:19:02.631Z,90.50
2022-07-25T20:21:31.299Z,90.80
2022-07-25T20:24:01.479Z,90.70
2022-07-25T20:26:29.590Z,90.50
2022-07-25T20:28:59.116Z,91.20
2022-07-25T20:31:27.383Z,92.00
2022-07-25T20:33:55.602Z,91.90
2022-07-25T20:36:23.721Z,91.80
2022-07-25T20:38:51.863Z,93.40
2022-07-25T20:41:20.119Z,94.10
2022-07-25T20:43:48.182Z,94.60
2022-07-25T20:46:17.827Z,95.10
2022-07-25T20:48:46.574Z,94.70
2022-07-25T20:51:14.869Z,94.70
2022-07-25T20:53:43.207Z,94.60
2022-07-25T20:56:11.318Z,94.10
2022-07-25T20:58:39.471Z,93.90
2022-07-25T21:01:07.612Z,94.30
2022-07-25T21:03:37.497Z,93.70
2022-07-25T21:06:05.905Z,94.20
2022-07-25T21:08:34.034Z,95.10
2022-07-25T21:11:02.098Z,95.30
2022-07-25T21:13:33.110Z,94.80
2022-07-25T21:16:01.552Z,95.00
2022-07-25T21:18:29.887Z,95.80
2022-07-25T21:20:59.506Z,95.80
2022-07-25T21:23:27.723Z,95.40
2022-07-25T21:25:56.131Z,95.80
2022-07-25T21:28:24.281Z,95.90
2022-07-25T21:30:54.421Z,95.60
2022-07-25T21:33:22.746Z,96.00
2022-07-25T21:35:53.257Z,97.20
2022-07-25T21:38:26.408Z,98.00
2022-07-25T21:40:55.853Z,98.30
2022-07-25T21:43:23.938Z,99.30
2022-07-25T21:45:52.320Z,98.60
2022-07-25T21:48:40.604Z,98.30
2022-07-25T21:51:19.083Z,98.00
2022-07-25T21:53:53.596Z,96.60
2022-07-25T21:56:21.918Z,96.80
2022-07-25T21:58:50.292Z,96.40
2022-07-25T22:01:20.626Z,95.90
2022-07-25T22:03:48.902Z,95.40
2022-07-25T22:06:17.022Z,96.20
2022-07-25T22:08:45.154Z,96.80
2022-07-25T22:11:20.720Z,98.30
2022-07-25T22:14:02.833Z,98.50
2022-07-25T22:16:30.936Z,98.40
2022-07-25T22:18:59.772Z,99.00
2022-07-25T22:21:28.115Z,99.20
2022-07-25T22:23:56.206Z,99.70
2022-07-25T22:26:25.792Z,99.90
2022-07-25T22:28:55.993Z,99.70
2022-07-25T22:31:24.112Z,99.90
2022-07-25T22:33:52.356Z,99.90
2022-07-25T22:36:20.741Z,99.50
2022-07-25T22:38:50.046Z,99.40
2022-07-25T22:41:18.184Z,99.90
2022-07-25T22:43:58.087Z,99.80
2022-07-25T22:46:27.790Z,99.90
2022-07-25T22:48:58.381Z,99.70
2022-07-25T22:51:26.818Z,99.90
2022-07-25T22:53:55.397Z,99.90
2022-07-25T22:56:23.938Z,99.90
2022-07-25T22:58:53.371Z,99.80
2022-07-25T23:01:21.922Z,99.90
2022-07-25T23:03:50.889Z,99.90
2022-07-25T23:06:20.951Z,99.90
2022-07-25T23:08:49.219Z,99.90
2022-07-25T23:11:17.704Z,99.90
2022-07-25T23:13:45.814Z,99.90
2022-07-25T23:16:15.550Z,99.90
2022-07-25T23:18:43.881Z,99.90
2022-07-25T23:21:12.317Z,99.90
2022-07-25T23:23:40.391Z,99.90
2022-07-25T23:26:08.569Z,99.90
2022-07-25T23:28:36.658Z,99.90
2022-07-25T23:31:04.976Z,99.90
2022-07-25T23:33:34.645Z,99.90
2022-07-25T23:36:03.013Z,99.90
2022-07-25T23:38:31.205Z,99.90
2022-07-25T23:40:59.282Z,99.90
2022-07-25T23:43:47.252Z,99.90
2022-07-25T23:46:15.709Z,99.90
2022-07-25T23:48:47.784Z,99.90
2022-07-25T23:51:16.620Z,99.90
2022-07-25T23:53:44.755Z,99.90
2022-07-25T23:56:17.249Z,99.90
2022-07-25T23:58:50.033Z,99.90
